Time;durP1;ratioP1;P1;durP2;ratioP2;P2;SDS_P1;SDS_P2;PMS_P1;PMS_P2;Temp;Humidity;BMP_temperature;BMP_pressure;BME280_temperature;BME280_humidity;BME280_pressure;Samples;Min_cycle;Max_cycle;Signal;HPM_P1;HPM_P2
2021/05/27 00:02:23;;;;;;;7.43;6.33;;;;;;;12.16;69.59;100274.72;5118400;28;20250;-63
2021/05/27 00:04:48;;;;;;;6.13;5.53;;;;;;;11.93;70.41;100286.06;5118406;28;20184;-63
2021/05/27 00:07:13;;;;;;;6.10;5.20;;;;;;;11.80;71.33;100274.81;5118828;28;20537;-63
2021/05/27 00:09:39;;;;;;;7.10;5.30;;;;;;;11.71;71.35;100275.69;5121327;28;20210;-62
2021/05/27 00:12:04;;;;;;;8.50;6.00;;;;;;;11.70;71.14;100278.31;5121947;27;20213;-63
2021/05/27 00:14:30;;;;;;;5.80;5.30;;;;;;;11.72;72.13;100276.59;5122380;27;20521;-63
2021/05/27 00:16:55;;;;;;;6.47;5.80;;;;;;;11.63;72.57;100277.44;5121874;28;20168;-63
2021/05/27 00:19:21;;;;;;;6.43;5.43;;;;;;;11.66;72.77;100279.19;5122084;28;20218;-63
2021/05/27 00:21:46;;;;;;;6.70;6.10;;;;;;;11.69;72.84;100285.28;5122203;28;20160;-63
2021/05/27 00:24:11;;;;;;;12.20;6.60;;;;;;;11.86;71.89;100268.69;5121764;28;20225;-63
2021/05/27 00:26:38;;;;;;;6.87;6.00;;;;;;;11.66;72.32;100285.28;5120006;28;20242;-62
2021/05/27 00:29:04;;;;;;;7.37;6.67;;;;;;;11.94;71.38;100272.16;5119255;28;20206;-63
2021/05/27 00:31:29;;;;;;;7.37;6.60;;;;;;;11.75;72.42;100277.41;5102157;28;20438;-63
2021/05/27 00:33:54;;;;;;;11.70;7.00;;;;;;;11.84;71.64;100273.94;5114200;28;20183;-63
2021/05/27 00:36:20;;;;;;;6.83;6.23;;;;;;;11.97;71.09;100277.38;5122040;28;20178;-62
2021/05/27 00:38:45;;;;;;;8.70;6.77;;;;;;;11.84;71.58;100280.88;5121020;28;20202;-63
2021/05/27 00:41:10;;;;;;;6.90;6.30;;;;;;;11.61;72.02;100271.38;5121437;28;20470;-62
2021/05/27 00:43:36;;;;;;;8.43;7.47;;;;;;;12.11;70.39;100275.59;5122095;28;20250;-63
2021/05/27 00:46:01;;;;;;;8.27;7.47;;;;;;;11.74;71.87;100288.72;5120524;27;20168;-63
2021/05/27 00:51:11;;;;;;;9.90;6.77;;;;;;;11.69;71.42;100293.13;5100913;28;20233;-63
2021/05/27 00:53:36;;;;;;;8.27;6.40;;;;;;;11.63;71.88;100285.28;5100903;28;20697;-62
2021/05/27 00:56:02;;;;;;;8.07;7.17;;;;;;;11.80;71.92;100288.72;5101396;28;20179;-62
2021/05/27 00:58:28;;;;;;;11.77;7.50;;;;;;;11.49;72.61;100293.16;5100927;28;20245;-62
2021/05/27 01:00:53;;;;;;;21.00;14.57;;;;;;;11.76;72.92;100296.59;5100497;28;20756;-62
2021/05/27 01:03:19;;;;;;;7.43;6.50;;;;;;;11.67;72.42;100294.84;5101063;28;20165;-63
2021/05/27 01:05:44;;;;;;;13.60;9.10;;;;;;;11.97;72.21;100293.06;5099935;28;20168;-63
2021/05/27 01:08:09;;;;;;;8.47;6.97;;;;;;;11.70;72.69;100296.59;5117003;28;20221;-62
2021/05/27 01:10:35;;;;;;;8.40;6.53;;;;;;;11.40;74.00;100288.78;5121440;28;20388;-62
2021/05/27 01:13:01;;;;;;;5.90;5.40;;;;;;;11.52;72.67;100292.28;5120830;28;20167;-63
2021/05/27 01:15:44;;;;;;;9.33;6.70;;;;;;;11.44;73.81;100289.69;5121027;28;20167;-63
2021/05/27 01:18:14;;;;;;;8.20;6.47;;;;;;;11.59;73.13;100291.38;5120777;28;20421;-62
2021/05/27 01:20:42;;;;;;;10.20;6.00;;;;;;;11.76;72.16;100289.63;5120845;28;20417;-63
2021/05/27 01:23:10;;;;;;;10.53;6.57;;;;;;;11.31;73.50;100301.84;5120836;27;20421;-63
2021/05/27 01:25:36;;;;;;;6.60;5.87;;;;;;;11.59;73.11;100297.47;5120487;28;20510;-61
2021/05/27 01:28:02;;;;;;;6.47;5.87;;;;;;;11.63;72.85;100296.59;5117264;28;20433;-62
2021/05/27 01:30:27;;;;;;;8.23;5.90;;;;;;;11.76;73.07;100293.97;5100496;28;20455;-62
2021/05/27 01:32:53;;;;;;;8.23;7.17;;;;;;;11.67;73.12;100291.38;5100078;28;20420;-63
2021/05/27 01:35:21;;;;;;;7.80;6.67;;;;;;;11.79;72.82;100293.97;5100226;28;20180;-62
2021/05/27 01:37:47;;;;;;;9.50;6.97;;;;;;;11.96;71.83;100289.59;5100434;28;20156;-62
2021/05/27 01:40:13;;;;;;;7.27;6.57;;;;;;;11.76;72.38;100296.59;5100163;28;20421;-64
2021/05/27 01:42:39;;;;;;;8.70;7.20;;;;;;;11.97;71.63;100295.66;5099686;28;20544;-63
2021/05/27 01:45:05;;;;;;;8.00;6.50;;;;;;;12.08;71.30;100287.81;5100290;28;20433;-62
2021/05/27 01:47:30;;;;;;;11.07;7.60;;;;;;;11.96;71.42;100293.94;5099656;28;20180;-62
2021/05/27 01:49:56;;;;;;;7.33;6.63;;;;;;;11.84;71.79;100291.31;5099710;28;20462;-62
2021/05/27 01:52:21;;;;;;;8.10;6.90;;;;;;;12.06;71.00;100292.19;5099972;28;20176;-63
2021/05/27 01:54:46;;;;;;;7.80;6.47;;;;;;;12.11;70.70;100283.44;5099688;28;20165;-63
2021/05/27 01:57:12;;;;;;;7.37;6.67;;;;;;;11.87;71.49;100291.34;5109258;28;20179;-62
2021/05/27 01:59:37;;;;;;;7.57;6.20;;;;;;;11.76;71.67;100291.38;5120857;28;20479;-62
2021/05/27 02:02:02;;;;;;;8.80;6.47;;;;;;;11.92;71.15;100297.38;5119869;28;20168;-64
2021/05/27 02:04:28;;;;;;;6.80;5.57;;;;;;;11.72;71.47;100289.63;5119901;28;20227;-63
2021/05/27 02:06:53;;;;;;;6.73;6.00;;;;;;;11.58;72.21;100297.47;5118012;28;20186;-63
2021/05/27 02:09:18;;;;;;;10.70;6.17;;;;;;;12.13;70.92;100281.66;5119782;28;20199;-62
2021/05/27 02:11:46;;;;;;;8.60;5.60;;;;;;;11.82;71.64;100295.69;5113287;28;20180;-62
2021/05/27 02:14:13;;;;;;;7.40;5.63;;;;;;;12.17;70.43;100282.53;5099801;28;20168;-63
2021/05/27 02:16:40;;;;;;;7.20;5.53;;;;;;;11.75;72.19;100287.88;5099208;28;20686;-63
2021/05/27 02:19:07;;;;;;;5.40;4.90;;;;;;;11.71;72.01;100283.53;5099358;28;20742;-63
2021/05/27 02:21:33;;;;;;;6.73;5.03;;;;;;;11.44;72.72;100280.09;5099579;28;20411;-63
2021/05/27 02:24:00;;;;;;;5.40;4.90;;;;;;;11.71;71.76;100283.53;5098512;28;20660;-63
2021/05/27 02:26:27;;;;;;;8.23;5.33;;;;;;;11.78;71.51;100285.28;5101805;28;20481;-63
2021/05/27 02:28:52;;;;;;;6.10;5.00;;;;;;;11.35;72.32;100294.91;5119172;28;20566;-63
2021/05/27 02:31:19;;;;;;;5.93;5.33;;;;;;;11.44;72.82;100282.69;5118970;28;20516;-63
2021/05/27 02:33:44;;;;;;;6.53;4.80;;;;;;;11.48;72.75;100285.31;5119356;28;20254;-62
2021/05/27 02:36:10;;;;;;;5.13;4.60;;;;;;;11.21;72.82;100293.16;5119717;28;20463;-63
2021/05/27 02:38:36;;;;;;;7.13;4.23;;;;;;;11.10;72.36;100287.94;5119373;28;20171;-62
2021/05/27 02:41:05;;;;;;;5.53;4.27;;;;;;;11.20;71.50;100293.16;5118326;28;20167;-63
2021/05/27 02:43:31;;;;;;;4.43;3.83;;;;;;;11.18;71.78;100289.69;5119823;28;20418;-62
2021/05/27 02:45:56;;;;;;;3.87;3.57;;;;;;;11.09;70.98;100286.19;5119208;28;20425;-62
2021/05/27 02:48:21;;;;;;;4.77;3.60;;;;;;;11.35;70.20;100293.19;5119258;28;20239;-62
2021/05/27 02:50:47;;;;;;;8.07;3.50;;;;;;;10.98;71.03;100290.56;5119391;28;20199;-62
2021/05/27 02:53:12;;;;;;;6.17;3.50;;;;;;;10.94;71.32;100291.41;5118859;28;20176;-63
2021/05/27 02:55:37;;;;;;;3.50;3.20;;;;;;;11.28;70.26;100294.03;5119049;28;20175;-62
2021/05/27 02:58:03;;;;;;;3.53;3.23;;;;;;;11.42;69.79;100279.25;5102470;28;20507;-62
2021/05/27 03:00:28;;;;;;;3.70;3.40;;;;;;;11.18;70.36;100280.13;5098530;28;20169;-62
2021/05/27 03:02:54;;;;;;;7.33;3.40;;;;;;;11.03;70.98;100283.59;5098280;28;20180;-63
2021/05/27 03:05:19;;;;;;;3.87;3.20;;;;;;;11.40;69.90;100286.19;5099194;28;20188;-64
2021/05/27 03:07:44;;;;;;;3.40;3.10;;;;;;;10.88;71.34;100294.91;5098472;28;20197;-62
2021/05/27 03:10:10;;;;;;;3.93;3.40;;;;;;;10.98;71.57;100284.47;5098385;28;20589;-62
2021/05/27 03:12:35;;;;;;;3.40;3.10;;;;;;;11.05;71.15;100288.81;5110981;28;20179;-63
2021/05/27 03:15:01;;;;;;;7.57;3.67;;;;;;;11.12;70.64;100291.44;5111025;28;20731;-63
2021/05/27 03:17:26;;;;;;;3.70;3.40;;;;;;;10.81;72.01;100276.63;5098274;28;20172;-63
2021/05/27 03:19:51;;;;;;;4.03;3.37;;;;;;;10.60;71.99;100291.38;5098572;28;20175;-62
2021/05/27 03:22:17;;;;;;;4.00;3.60;;;;;;;11.23;69.95;100281.00;5098127;28;20218;-63
2021/05/27 03:24:42;;;;;;;5.27;3.10;;;;;;;11.18;70.25;100289.69;5098271;28;20184;-62
2021/05/27 03:27:07;;;;;;;4.43;2.90;;;;;;;10.58;71.59;100291.38;5098638;28;20172;-62
2021/05/27 03:29:32;;;;;;;3.00;2.80;;;;;;;10.95;71.00;100291.41;5098250;28;20482;-63
2021/05/27 03:31:58;;;;;;;4.67;2.83;;;;;;;10.86;70.23;100288.78;5098079;28;20172;-62
2021/05/27 03:34:23;;;;;;;3.23;2.83;;;;;;;10.69;71.49;100291.41;5098433;28;20168;-63
2021/05/27 03:36:49;;;;;;;3.13;2.63;;;;;;;10.76;71.60;100293.13;5098249;28;20179;-63
2021/05/27 03:39:14;;;;;;;4.10;3.43;;;;;;;11.15;70.51;100287.06;5098153;28;20602;-63
2021/05/27 03:41:39;;;;;;;4.57;3.30;;;;;;;11.24;70.46;100292.28;5101544;28;20225;-62
2021/05/27 03:44:05;;;;;;;4.80;3.13;;;;;;;10.73;71.11;100285.31;5102309;28;20176;-63
2021/05/27 03:46:32;;;;;;;3.70;3.30;;;;;;;11.22;71.08;100288.84;5102253;28;20254;-62
2021/05/27 03:48:57;;;;;;;7.20;3.67;;;;;;;10.90;71.97;100281.84;5102454;28;20445;-63
2021/05/27 03:51:22;;;;;;;6.73;3.30;;;;;;;10.83;72.10;100298.38;5102020;28;20439;-62
2021/05/27 03:53:48;;;;;;;3.50;3.20;;;;;;;10.45;73.71;100306.09;5102165;28;20196;-62
2021/05/27 03:56:13;;;;;;;4.93;4.50;;;;;;;10.69;72.83;100294.00;5102770;28;20172;-62
2021/05/27 04:01:23;;;;;;;3.80;3.50;;;;;;;10.74;73.19;100294.88;5101847;28;20183;-63
2021/05/27 04:09:16;;;;;;;4.23;3.83;;;;;;;10.95;73.05;100306.22;5101802;28;20495;-63
2021/05/27 04:11:41;;;;;;;4.87;3.80;;;;;;;10.86;73.87;100303.59;5104893;28;20512;-62
2021/05/27 04:14:06;;;;;;;4.47;4.07;;;;;;;10.84;73.05;100307.91;5122175;27;20248;-62
2021/05/27 04:16:32;;;;;;;5.20;4.30;;;;;;;10.82;73.85;100301.84;5122070;28;20179;-62
2021/05/27 04:18:57;;;;;;;6.17;4.50;;;;;;;11.07;73.77;100307.97;5122347;28;20163;-62
2021/05/27 04:21:22;;;;;;;6.10;4.40;;;;;;;11.02;73.83;100302.72;5121760;28;20585;-62
2021/05/27 04:23:48;;;;;;;7.60;4.70;;;;;;;10.75;74.77;100314.00;5121993;28;20208;-62
2021/05/27 04:26:14;;;;;;;5.00;4.50;;;;;;;11.07;73.54;100308.81;5119580;28;20230;-62
2021/05/27 04:28:42;;;;;;;4.17;3.87;;;;;;;10.93;73.25;100315.75;5101752;28;20509;-62
2021/05/27 04:31:10;;;;;;;6.10;4.60;;;;;;;11.16;73.25;100310.56;5101329;28;20457;-63
2021/05/27 04:33:54;;;;;;;6.60;5.07;;;;;;;11.20;73.39;100316.66;5105481;28;20826;-63
2021/05/27 04:36:21;;;;;;;4.67;4.00;;;;;;;10.89;73.71;100309.69;5121660;28;20814;-63
2021/05/27 04:38:47;;;;;;;6.40;4.40;;;;;;;11.04;73.65;100319.25;5121600;27;20423;-63
2021/05/27 04:41:13;;;;;;;9.93;4.50;;;;;;;11.25;72.60;100320.13;5107747;28;20586;-62
2021/05/27 04:43:39;;;;;;;7.10;4.30;;;;;;;10.94;74.40;100309.69;5121782;28;20526;-63
2021/05/27 04:46:04;;;;;;;6.63;4.30;;;;;;;11.02;73.55;100323.59;5125919;27;20254;-64
2021/05/27 04:48:30;;;;;;;6.57;4.73;;;;;;;11.08;73.42;100317.50;5124736;27;20479;-64
2021/05/27 04:50:55;;;;;;;5.77;4.90;;;;;;;11.03;73.94;100316.66;5101201;28;20203;-66
2021/05/27 04:53:22;;;;;;;6.30;5.57;;;;;;;11.03;73.35;100325.34;5139200;27;20174;-63
2021/05/27 04:55:48;;;;;;;7.50;4.80;;;;;;;11.07;73.48;100324.47;5141878;27;20198;-64
2021/05/27 04:58:14;;;;;;;9.10;5.80;;;;;;;11.12;73.10;100329.69;5107806;27;20409;-63
2021/05/27 05:00:39;;;;;;;6.70;4.73;;;;;;;11.21;73.25;100323.63;5100539;28;20179;-63
2021/05/27 05:03:05;;;;;;;7.63;4.80;;;;;;;11.37;73.29;100337.53;5104691;28;20202;-63
2021/05/27 05:05:31;;;;;;;6.77;6.07;;;;;;;10.95;74.00;100347.94;5121643;28;20254;-63
2021/05/27 05:07:57;;;;;;;8.33;6.53;;;;;;;11.16;73.70;100339.25;5115335;28;20188;-63
2021/05/27 05:10:24;;;;;;;9.60;5.10;;;;;;;11.35;72.84;100345.38;5116995;28;20472;-62
2021/05/27 05:12:50;;;;;;;6.60;4.90;;;;;;;11.31;73.41;100341.00;5100673;28;20172;-63
2021/05/27 05:15:24;;;;;;;7.57;4.83;;;;;;;11.43;72.91;100340.13;5100562;28;20388;-63
2021/05/27 05:17:57;;;;;;;7.57;5.37;;;;;;;11.38;72.66;100342.75;5112871;28;20195;-62
2021/05/27 05:20:42;;;;;;;8.70;5.53;;;;;;;11.22;73.26;100356.66;5111526;28;20710;-62
2021/05/27 05:23:08;;;;;;;8.83;6.50;;;;;;;11.60;72.63;100355.78;5101240;28;20426;-63
2021/05/27 05:25:35;;;;;;;6.43;5.50;;;;;;;11.39;73.70;100357.56;5099866;28;20466;-63
2021/05/27 05:28:01;;;;;;;8.07;6.00;;;;;;;11.62;72.35;100356.66;5102509;28;20812;-63
2021/05/27 05:30:28;;;;;;;6.23;5.03;;;;;;;11.22;73.95;100367.97;5116725;28;20541;-63
2021/05/27 05:32:54;;;;;;;6.37;4.70;;;;;;;11.45;73.28;100360.13;5101056;28;20751;-62
2021/05/27 05:35:20;;;;;;;7.67;5.50;;;;;;;11.23;73.84;100371.44;5105099;28;20529;-62
2021/05/27 05:37:46;;;;;;;8.40;4.77;;;;;;;11.29;74.12;100374.06;5105535;28;20439;-63
2021/05/27 05:40:14;;;;;;;8.00;4.57;;;;;;;11.43;72.95;100361.91;5101308;28;20385;-63
2021/05/27 05:42:39;;;;;;;5.90;4.60;;;;;;;11.52;73.51;100357.53;5119892;28;20458;-62
2021/05/27 05:45:06;;;;;;;7.50;5.47;;;;;;;11.40;73.89;100371.47;5117592;28;20909;-63
2021/05/27 05:47:31;;;;;;;6.10;4.57;;;;;;;12.13;70.88;100367.03;5120244;28;20669;-62
2021/05/27 05:49:57;;;;;;;5.00;4.50;;;;;;;11.88;71.61;100368.81;5120073;27;20460;-63
2021/05/27 05:52:22;;;;;;;5.67;4.17;;;;;;;11.72;72.94;100379.28;5113336;28;20192;-62
2021/05/27 05:54:48;;;;;;;6.33;4.13;;;;;;;11.29;74.24;100385.34;5099851;28;20594;-63
2021/05/27 05:57:13;;;;;;;4.50;4.10;;;;;;;11.44;74.44;100387.09;5100175;28;20180;-63
2021/05/27 05:59:38;;;;;;;4.80;4.23;;;;;;;11.66;73.65;100392.31;5100374;28;20176;-63
2021/05/27 06:02:04;;;;;;;6.00;4.30;;;;;;;11.58;73.94;100386.25;5099591;28;20438;-63
2021/05/27 06:04:30;;;;;;;8.30;4.40;;;;;;;11.76;74.01;100401.06;5098271;28;20184;-63
2021/05/27 06:06:56;;;;;;;7.33;4.87;;;;;;;11.91;73.08;100395.78;5103937;28;20822;-62
2021/05/27 06:09:21;;;;;;;4.57;4.10;;;;;;;11.92;73.29;100401.88;5119667;28;20292;-63
2021/05/27 06:11:46;;;;;;;4.93;4.43;;;;;;;11.84;73.15;100411.47;5105047;28;20191;-62
2021/05/27 06:14:12;;;;;;;5.77;4.83;;;;;;;12.01;73.06;100396.69;5108498;28;20192;-63
2021/05/27 06:16:37;;;;;;;5.03;4.20;;;;;;;11.85;73.41;100402.78;5098216;28;20501;-62
2021/05/27 06:19:03;;;;;;;6.10;4.03;;;;;;;12.53;71.42;100400.91;5111307;27;20203;-64
2021/05/27 06:21:28;;;;;;;4.67;4.23;;;;;;;12.48;71.98;100400.03;5109761;27;20614;-62
2021/05/27 06:23:53;;;;;;;4.27;3.87;;;;;;;12.78;70.86;100404.25;5138612;27;20596;-63
2021/05/27 06:26:26;;;;;;;4.33;3.93;;;;;;;13.04;69.47;100408.47;5080491;28;20522;-63
2021/05/27 06:28:52;;;;;;;4.97;4.13;;;;;;;12.64;70.91;100409.56;5078281;28;20707;-63
2021/05/27 06:31:17;;;;;;;7.63;4.90;;;;;;;12.75;70.99;100411.28;5055998;28;20243;-63
2021/05/27 06:33:43;;;;;;;5.03;4.17;;;;;;;12.70;71.14;100424.34;5055044;28;20217;-62
2021/05/27 06:36:08;;;;;;;6.33;4.13;;;;;;;12.28;72.21;100418.41;5085310;28;20191;-63
2021/05/27 06:38:34;;;;;;;9.30;4.50;;;;;;;12.49;72.17;100421.81;5075351;28;20475;-63
2021/05/27 06:41:00;;;;;;;4.10;3.70;;;;;;;12.56;71.56;100427.03;5073048;28;20184;-63
2021/05/27 06:43:25;;;;;;;4.37;3.97;;;;;;;12.61;71.09;100427.88;5075138;28;20420;-62
2021/05/27 06:45:51;;;;;;;4.97;3.70;;;;;;;12.48;71.75;100425.34;5071300;28;20561;-62
2021/05/27 06:48:16;;;;;;;3.87;3.57;;;;;;;12.52;71.97;100440.13;5074897;28;20177;-62
2021/05/27 06:50:42;;;;;;;4.03;3.73;;;;;;;12.73;71.08;100437.44;5074253;28;20161;-63
2021/05/27 06:53:09;;;;;;;4.60;4.20;;;;;;;12.78;71.26;100433.03;5085252;28;20188;-65
2021/05/27 06:55:36;;;;;;;4.47;4.07;;;;;;;12.19;72.81;100447.16;5091082;28;20189;-64
2021/05/27 06:58:02;;;;;;;4.60;4.10;;;;;;;12.12;73.24;100441.06;5074536;28;20514;-62
2021/05/27 07:00:28;;;;;;;4.37;3.97;;;;;;;12.46;72.53;100444.50;5057254;28;20750;-65
2021/05/27 07:02:54;;;;;;;5.77;4.53;;;;;;;12.63;72.49;100446.19;5072512;28;20211;-64
2021/05/27 07:05:19;;;;;;;4.97;4.47;;;;;;;12.44;72.17;100448.84;5074115;28;20867;-62
2021/05/27 07:07:45;;;;;;;5.50;4.50;;;;;;;12.98;71.03;100442.56;5074334;28;20212;-66
2021/05/27 07:10:16;;;;;;;5.77;4.20;;;;;;;12.97;70.75;100448.66;5074469;28;20173;-63
2021/05/27 07:13:07;;;;;;;5.17;4.47;;;;;;;12.94;70.10;100449.53;5074342;28;20405;-68
2021/05/27 07:15:33;;;;;;;6.63;4.93;;;;;;;12.90;70.64;100452.19;5070455;28;20479;-67
2021/05/27 07:17:59;;;;;;;4.53;4.10;;;;;;;13.05;70.35;100454.72;5073106;28;20437;-66
2021/05/27 07:20:25;;;;;;;5.00;4.47;;;;;;;12.72;71.23;100453.13;5060476;28;20510;-66
2021/05/27 07:22:52;;;;;;;5.37;4.87;;;;;;;12.92;70.65;100458.25;5087899;28;20180;-66
2021/05/27 07:25:20;;;;;;;5.23;4.60;;;;;;;13.08;70.32;100457.34;5087249;28;20489;-66
2021/05/27 07:27:48;;;;;;;7.10;5.00;;;;;;;12.99;70.03;100462.63;5078510;28;20443;-65
2021/05/27 07:30:13;;;;;;;4.80;4.30;;;;;;;13.43;68.97;100473.72;5085026;28;20435;-65
2021/05/27 07:32:39;;;;;;;5.33;4.43;;;;;;;13.55;69.09;100470.16;5089130;28;20421;-67
2021/05/27 07:35:05;;;;;;;5.17;4.67;;;;;;;13.69;68.29;100470.06;5071543;28;20177;-66
2021/05/27 07:37:30;;;;;;;6.53;5.03;;;;;;;14.04;66.93;100472.38;5053266;28;20209;-65
2021/05/27 07:39:56;;;;;;;6.57;4.80;;;;;;;14.07;66.98;100472.38;5063922;28;20744;-66
2021/05/27 07:42:21;;;;;;;7.60;5.00;;;;;;;14.19;66.16;100481.84;5075778;28;20243;-67
2021/05/27 07:44:46;;;;;;;5.87;4.77;;;;;;;14.28;65.85;100480.91;5063441;28;20202;-65
2021/05/27 07:47:12;;;;;;;6.63;4.77;;;;;;;14.30;65.88;100476.50;5050176;28;20188;-66
2021/05/27 07:49:37;;;;;;;4.80;4.30;;;;;;;14.57;64.44;100492.84;5062352;28;20180;-66
2021/05/27 07:52:03;;;;;;;7.10;4.60;;;;;;;14.60;64.60;100487.56;5065532;28;20185;-66
2021/05/27 07:54:28;;;;;;;4.70;3.93;;;;;;;14.59;64.77;100485.84;5055707;28;20263;-67
2021/05/27 07:56:53;;;;;;;8.60;4.47;;;;;;;14.28;65.63;100487.00;5068756;28;20177;-66
2021/05/27 07:59:19;;;;;;;7.20;4.63;;;;;;;14.74;65.45;100490.94;5062841;28;20186;-65
2021/05/27 08:01:45;;;;;;;6.07;4.50;;;;;;;14.36;65.99;100500.06;5050906;28;20459;-65
2021/05/27 08:04:11;;;;;;;8.60;4.50;;;;;;;13.30;69.04;100514.78;5057181;28;20436;-65
2021/05/27 08:06:37;;;;;;;5.30;4.30;;;;;;;13.70;68.21;100509.34;5059888;28;20177;-65
2021/05/27 08:09:06;;;;;;;6.00;4.27;;;;;;;13.10;69.63;100513.16;5060036;28;20466;-64
2021/05/27 08:11:32;;;;;;;8.40;4.23;;;;;;;13.25;69.09;100511.34;5055568;28;20536;-65
2021/05/27 08:13:57;;;;;;;6.70;3.80;;;;;;;13.78;68.19;100517.16;5048938;28;20412;-64
2021/05/27 08:16:22;;;;;;;5.40;4.17;;;;;;;13.53;69.24;100512.09;5047886;28;20216;-65
2021/05/27 08:18:48;;;;;;;7.17;4.63;;;;;;;13.74;67.86;100511.06;5040858;28;20688;-65
2021/05/27 08:21:14;;;;;;;4.60;4.20;;;;;;;14.18;66.64;100515.97;5059520;28;20535;-64
2021/05/27 08:23:39;;;;;;;6.80;4.77;;;;;;;13.55;68.60;100522.56;5053638;28;20190;-67
2021/05/27 08:26:04;;;;;;;6.27;4.60;;;;;;;13.60;68.93;100521.63;5048238;28;20224;-64
2021/05/27 08:28:30;;;;;;;8.77;5.60;;;;;;;13.90;68.77;100516.19;5068658;28;20560;-65
2021/05/27 08:30:55;;;;;;;7.70;5.37;;;;;;;14.15;67.89;100528.22;5059491;28;20166;-66
2021/05/27 08:33:21;;;;;;;6.23;5.07;;;;;;;13.57;70.48;100536.50;5059113;28;20215;-65
2021/05/27 08:35:47;;;;;;;8.67;5.10;;;;;;;13.44;70.29;100535.72;5041222;28;20290;-66
2021/05/27 08:38:13;;;;;;;10.03;5.70;;;;;;;13.84;69.16;100538.06;5039358;28;20423;-67
2021/05/27 08:40:38;;;;;;;5.73;5.10;;;;;;;14.27;67.28;100542.09;5040874;28;20186;-65
2021/05/27 08:43:04;;;;;;;8.30;5.47;;;;;;;14.79;66.37;100546.88;5039254;28;20200;-65
2021/05/27 08:45:33;;;;;;;5.73;5.00;;;;;;;14.98;65.85;100537.03;5048487;28;20220;-66
2021/05/27 08:47:59;;;;;;;5.50;4.00;;;;;;;14.86;65.80;100554.69;5051741;28;20451;-66
2021/05/27 08:50:30;;;;;;;4.20;3.80;;;;;;;14.80;65.22;100553.88;5059304;28;20780;-66
2021/05/27 08:52:56;;;;;;;6.63;4.33;;;;;;;14.57;66.78;100555.81;5050975;28;20195;-66
2021/05/27 08:55:22;;;;;;;4.90;4.30;;;;;;;14.51;66.73;100564.63;5056903;28;20524;-64
2021/05/27 08:57:48;;;;;;;4.43;4.03;;;;;;;14.20;67.38;100571.88;5059465;28;20466;-65
2021/05/27 09:00:14;;;;;;;6.40;4.90;;;;;;;14.04;68.04;100572.00;5045801;28;20185;-65
2021/05/27 09:02:55;;;;;;;7.03;4.33;;;;;;;13.78;69.25;100572.19;5058766;28;20234;-65
2021/05/27 09:05:22;;;;;;;7.70;5.27;;;;;;;14.00;69.70;100574.66;5058201;28;20889;-64
2021/05/27 09:07:47;;;;;;;5.57;4.47;;;;;;;14.15;68.63;100580.66;5058858;28;20383;-66
2021/05/27 09:10:13;;;;;;;4.70;3.90;;;;;;;14.18;67.57;100584.13;5055119;28;20410;-66
2021/05/27 09:12:38;;;;;;;4.90;3.90;;;;;;;13.97;68.61;100589.50;5038681;28;20170;-68
2021/05/27 09:15:07;;;;;;;6.30;3.90;;;;;;;14.39;67.09;100591.81;5038788;28;20219;-65
2021/05/27 09:17:46;;;;;;;6.30;4.87;;;;;;;14.30;68.00;100602.38;5038329;28;20166;-66
2021/05/27 09:20:19;;;;;;;6.87;4.70;;;;;;;14.11;68.72;100605.16;5047318;28;20668;-65
2021/05/27 09:22:45;;;;;;;4.97;4.47;;;;;;;14.01;69.66;100598.22;5043680;28;20418;-65
2021/05/27 09:25:27;;;;;;;5.10;4.60;;;;;;;14.08;69.38;100607.78;5050320;28;20872;-65
2021/05/27 09:27:53;;;;;;;5.23;4.50;;;;;;;14.10;68.66;100611.28;5077760;28;20447;-65
2021/05/27 09:30:19;;;;;;;7.00;5.33;;;;;;;14.96;66.67;100614.06;5072124;28;20442;-65
2021/05/27 09:32:46;;;;;;;5.03;4.20;;;;;;;15.45;64.91;100605.63;5041722;28;20182;-65
2021/05/27 09:35:13;;;;;;;4.20;3.80;;;;;;;14.64;66.25;100615.25;5042608;28;20427;-66
2021/05/27 09:37:46;;;;;;;4.60;4.20;;;;;;;15.56;63.85;100610.75;5041578;28;20407;-65
2021/05/27 09:40:22;;;;;;;4.80;3.93;;;;;;;15.18;65.09;100625.22;5047829;28;20410;-65
2021/05/27 09:42:48;;;;;;;5.33;3.93;;;;;;;15.48;64.65;100618.72;5044850;28;20444;-66
2021/05/27 09:45:17;;;;;;;7.10;4.40;;;;;;;15.93;63.26;100610.25;5038230;28;20439;-64
2021/05/27 09:47:42;;;;;;;4.80;4.10;;;;;;;15.87;62.97;100622.59;5038244;28;20444;-64
2021/05/27 09:50:08;;;;;;;5.47;4.10;;;;;;;15.82;62.65;100631.44;5038279;28;20684;-65
2021/05/27 09:52:41;;;;;;;7.50;5.03;;;;;;;16.27;61.15;100630.75;5044008;28;20185;-65
2021/05/27 09:55:12;;;;;;;5.67;4.33;;;;;;;17.84;57.29;100632.22;5047590;28;20565;-64
2021/05/27 09:57:40;;;;;;;4.10;3.80;;;;;;;17.10;59.34;100636.41;5040363;28;20889;-64
2021/05/27 10:00:08;;;;;;;4.33;3.93;;;;;;;17.75;58.30;100635.09;5051300;28;20418;-64
2021/05/27 10:02:35;;;;;;;4.33;3.50;;;;;;;17.24;57.85;100635.25;5039983;28;20698;-65
2021/05/27 10:05:00;;;;;;;5.23;4.77;;;;;;;15.78;61.40;100647.25;5037943;28;20458;-64
2021/05/27 10:07:44;;;;;;;5.40;4.20;;;;;;;16.00;61.39;100655.72;5037868;28;20384;-63
2021/05/27 10:10:11;;;;;;;4.47;4.07;;;;;;;15.65;61.72;100654.41;5040910;28;20205;-64
2021/05/27 10:12:39;;;;;;;7.07;4.73;;;;;;;16.28;60.77;100657.97;5046561;28;20418;-64
2021/05/27 10:15:05;;;;;;;5.73;4.47;;;;;;;16.55;59.41;100661.03;5040448;28;20431;-65
2021/05/27 10:17:32;;;;;;;5.47;4.17;;;;;;;15.78;61.91;100666.50;5037493;28;20479;-64
2021/05/27 10:19:57;;;;;;;7.30;4.00;;;;;;;16.70;59.90;100673.06;5046237;28;20564;-64
2021/05/27 10:22:23;;;;;;;5.87;4.07;;;;;;;16.70;59.99;100667.78;5048533;28;20904;-63
2021/05/27 10:24:48;;;;;;;6.27;4.23;;;;;;;17.39;59.25;100669.22;5037349;28;20226;-64
2021/05/27 10:27:14;;;;;;;5.03;3.93;;;;;;;17.56;57.49;100673.28;5065343;28;20444;-64
2021/05/27 10:29:41;;;;;;;13.80;9.97;;;;;;;17.89;56.43;100674.34;5077893;28;20287;-64
2021/05/27 10:32:07;;;;;;;4.73;4.20;;;;;;;18.65;53.96;100675.25;5042037;28;20433;-64
2021/05/27 10:34:50;;;;;;;4.03;3.60;;;;;;;21.20;48.48;100668.53;5038080;28;20411;-64
2021/05/27 10:37:38;;;;;;;3.93;3.60;;;;;;;20.17;49.27;100679.88;5037383;28;20791;-64
2021/05/27 10:40:19;;;;;;;10.77;9.77;;;;;;;19.42;50.44;100683.81;5037382;28;20413;-66
2021/05/27 10:42:56;;;;;;;10.93;9.80;;;;;;;19.46;52.60;100688.09;5038444;28;20446;-64
2021/05/27 10:45:26;;;;;;;5.30;4.37;;;;;;;18.08;55.01;100688.03;5037303;28;20480;-63
2021/05/27 10:48:16;;;;;;;6.33;4.40;;;;;;;16.87;56.18;100696.47;5048269;28;20889;-63
2021/05/27 10:51:15;;;;;;;8.03;7.23;;;;;;;16.77;55.91;100707.16;5047372;28;20417;-63
2021/05/27 10:53:41;;;;;;;3.60;3.30;;;;;;;16.85;56.49;100709.69;5049457;28;20406;-63
2021/05/27 10:56:17;;;;;;;3.60;3.30;;;;;;;16.24;57.31;100711.50;5037318;28;20482;-63
2021/05/27 10:58:54;;;;;;;2.90;2.70;;;;;;;16.36;55.51;100716.59;5041851;28;20185;-63
2021/05/27 11:01:41;;;;;;;2.80;2.60;;;;;;;16.60;56.97;100719.72;5057221;28;20427;-64
2021/05/27 11:04:27;;;;;;;3.07;2.77;;;;;;;16.33;56.59;100725.41;5041347;28;20419;-64
2021/05/27 11:07:12;;;;;;;2.83;2.63;;;;;;;16.61;56.59;100732.00;5037387;28;20412;-65
2021/05/27 11:09:38;;;;;;;3.70;3.40;;;;;;;16.92;57.28;100728.91;5037173;28;20420;-65
2021/05/27 11:12:10;;;;;;;3.70;3.40;;;;;;;16.47;57.95;100730.44;5039000;28;20673;-64
2021/05/27 11:14:45;;;;;;;4.00;3.70;;;;;;;17.20;57.23;100729.28;5048673;28;20185;-64
2021/05/27 11:17:19;;;;;;;3.40;3.10;;;;;;;18.17;54.83;100722.13;5047906;28;20713;-65
2021/05/27 11:25:07;;;;;;;2.60;2.40;;;;;;;18.77;51.09;100726.91;5046816;28;21089;-65
2021/05/27 11:27:32;;;;;;;2.70;2.50;;;;;;;19.69;49.35;100735.06;5047970;28;20833;-65
2021/05/27 11:30:17;;;;;;;3.10;2.90;;;;;;;20.02;50.53;100726.22;5057144;28;20443;-65
2021/05/27 11:32:43;;;;;;;2.67;2.47;;;;;;;19.53;49.60;100725.81;5042112;28;20197;-65
2021/05/27 11:35:08;;;;;;;3.87;3.27;;;;;;;19.26;50.20;100725.66;5053764;28;20521;-65
2021/05/27 11:37:35;;;;;;;2.97;2.77;;;;;;;18.43;51.02;100739.13;5056669;28;20440;-65
2021/05/27 11:40:01;;;;;;;3.13;2.83;;;;;;;17.54;54.47;100751.53;5045743;28;20188;-65
2021/05/27 11:42:26;;;;;;;3.20;2.90;;;;;;;16.41;53.33;100762.13;5052267;28;20726;-64